createdAt,value
2019-04-16T00:01:50.826Z,11.73
2019-04-16T00:04:38.135Z,12.87
2019-04-16T00:07:25.903Z,11.93
2019-04-16T00:10:23.901Z,13.23
2019-04-16T00:13:08.134Z,12.87
2019-04-16T00:15:40.942Z,12.00
2019-04-16T00:18:09.267Z,12.73
2019-04-16T00:20:48.855Z,12.07
2019-04-16T00:23:27.217Z,12.77
2019-04-16T00:25:57.867Z,11.60
2019-04-16T00:28:30.471Z,12.00
2019-04-16T00:30:59.265Z,11.47
2019-04-16T00:33:29.163Z,11.27
2019-04-16T00:35:58.979Z,12.53
2019-04-16T00:38:40.053Z,12.47
2019-04-16T00:41:01.369Z,11.33
2019-04-16T00:43:31.669Z,12.00
2019-04-16T00:46:01.437Z,11.68
2019-04-16T00:48:31.410Z,11.90
2019-04-16T00:51:01.324Z,11.83
2019-04-16T00:53:29.793Z,11.40
2019-04-16T00:55:58.084Z,11.70
2019-04-16T00:58:28.006Z,12.20
2019-04-16T01:00:57.666Z,12.23
2019-04-16T01:03:27.325Z,12.23
2019-04-16T01:05:57.143Z,12.23
2019-04-16T01:08:26.820Z,13.00
2019-04-16T01:10:56.636Z,12.10
2019-04-16T01:13:26.933Z,13.23
2019-04-16T01:15:56.861Z,12.73
2019-04-16T01:18:26.707Z,13.27
2019-04-16T01:20:56.604Z,12.97
2019-04-16T01:23:26.744Z,13.40
2019-04-16T01:25:56.446Z,14.33
2019-04-16T01:28:31.484Z,12.87
2019-04-16T01:31:25.046Z,13.23
2019-04-16T01:34:15.287Z,12.03
2019-04-16T01:36:58.845Z,11.90
2019-04-16T01:39:29.245Z,13.20
2019-04-16T01:41:58.923Z,12.63
2019-04-16T01:44:29.626Z,13.10
2019-04-16T01:47:03.340Z,12.77
2019-04-16T01:49:31.088Z,11.80
2019-04-16T01:52:01.007Z,11.20
2019-04-16T01:54:31.852Z,13.10
2019-04-16T01:57:08.513Z,12.10
2019-04-16T01:59:38.026Z,12.07
2019-04-16T02:02:08.724Z,12.60
2019-04-16T02:04:41.942Z,11.47
2019-04-16T02:07:11.862Z,12.13
2019-04-16T02:09:41.913Z,12.83
2019-04-16T02:12:13.414Z,12.05
2019-04-16T02:14:43.184Z,12.00
2019-04-16T02:17:13.762Z,12.90
2019-04-16T02:19:44.495Z,12.53
2019-04-16T02:22:14.421Z,12.37
2019-04-16T02:24:44.071Z,13.20
2019-04-16T02:27:13.761Z,12.47
2019-04-16T02:29:43.501Z,12.07
2019-04-16T02:32:13.174Z,13.15
2019-04-16T02:34:43.013Z,12.13
2019-04-16T02:37:13.892Z,11.57
2019-04-16T02:39:48.773Z,12.57
2019-04-16T02:42:15.255Z,12.43
2019-04-16T02:47:21.267Z,12.60
2019-04-16T02:49:56.417Z,14.30
2019-04-16T02:52:37.556Z,12.63
2019-04-16T02:55:32.454Z,12.07
2019-04-16T02:58:10.295Z,12.67
2019-04-16T03:01:01.200Z,11.83
2019-04-16T03:03:50.083Z,13.10
2019-04-16T03:06:20.101Z,12.05
2019-04-16T03:08:50.608Z,15.03
2019-04-16T03:11:20.476Z,14.40
2019-04-16T03:13:52.427Z,12.97
2019-04-16T03:16:56.311Z,12.37
2019-04-16T03:19:30.878Z,16.50
2019-04-16T03:22:02.224Z,12.53
2019-04-16T03:24:32.145Z,11.97
2019-04-16T03:27:04.656Z,12.07
2019-04-16T03:29:33.964Z,11.60
2019-04-16T03:32:04.640Z,12.67
2019-04-16T03:34:34.564Z,12.93
2019-04-16T03:37:05.347Z,11.57
2019-04-16T03:39:35.290Z,12.17
2019-04-16T03:42:05.782Z,14.53
2019-04-16T03:44:37.286Z,11.67
2019-04-16T03:47:07.092Z,12.20
2019-04-16T03:49:36.764Z,13.03
2019-04-16T03:52:08.434Z,12.03
2019-04-16T03:54:38.810Z,12.10
2019-04-16T03:57:09.683Z,12.60
2019-04-16T03:59:40.687Z,12.23
2019-04-16T04:02:10.515Z,14.27
2019-04-16T04:04:40.268Z,12.83
2019-04-16T04:07:12.019Z,11.30
2019-04-16T04:09:41.315Z,13.63
2019-04-16T04:12:13.318Z,13.27
2019-04-16T04:14:42.338Z,12.57
2019-04-16T04:17:12.299Z,11.95
2019-04-16T04:19:43.534Z,11.90
2019-04-16T04:22:13.704Z,11.50
2019-04-16T04:24:43.579Z,12.63
2019-04-16T04:27:18.671Z,12.50
2019-04-16T04:29:46.618Z,14.80
2019-04-16T04:32:16.313Z,13.40
2019-04-16T04:34:48.572Z,13.43
2019-04-16T04:37:17.481Z,12.85
2019-04-16T04:39:47.149Z,12.63
2019-04-16T04:42:19.364Z,13.13
2019-04-16T04:44:48.794Z,11.77
2019-04-16T04:47:20.200Z,11.95
2019-04-16T04:49:51.093Z,14.00
2019-04-16T04:52:20.751Z,12.68
2019-04-16T04:54:51.399Z,13.87
2019-04-16T04:57:21.802Z,12.85
2019-04-16T04:59:51.582Z,13.03
2019-04-16T05:02:22.275Z,13.57
2019-04-16T05:04:57.133Z,12.70
2019-04-16T05:07:29.071Z,14.07
2019-04-16T05:09:58.173Z,12.43
2019-04-16T05:12:27.839Z,13.03
2019-04-16T05:14:58.777Z,11.73
2019-04-16T05:17:30.012Z,15.13
2019-04-16T05:19:59.806Z,13.20
2019-04-16T05:22:33.005Z,11.90
2019-04-16T05:25:01.583Z,14.00
2019-04-16T05:27:31.009Z,12.73
2019-04-16T05:29:59.344Z,12.10
2019-04-16T05:32:32.734Z,12.73
2019-04-16T05:34:59.433Z,13.93
2019-04-16T05:37:31.949Z,14.70
2019-04-16T05:40:01.617Z,13.73
2019-04-16T05:42:31.282Z,13.10
2019-04-16T05:45:02.490Z,11.20
2019-04-16T05:47:32.537Z,12.67
2019-04-16T05:50:02.307Z,13.67
2019-04-16T05:52:32.294Z,14.53
2019-04-16T05:55:21.456Z,12.93
2019-04-16T05:57:51.750Z,13.67
2019-04-16T06:00:30.899Z,12.57
2019-04-16T06:03:00.609Z,12.77
2019-04-16T06:05:30.271Z,11.67
2019-04-16T06:08:10.123Z,11.73
2019-04-16T06:10:40.155Z,12.07
2019-04-16T06:13:27.523Z,13.70
2019-04-16T06:16:12.533Z,11.33
2019-04-16T06:18:52.942Z,11.20
2019-04-16T06:21:39.810Z,11.43
2019-04-16T06:24:35.863Z,11.75
2019-04-16T06:27:28.459Z,13.63
2019-04-16T06:30:14.932Z,11.90
2019-04-16T06:32:56.816Z,12.77
2019-04-16T06:35:44.348Z,11.67
2019-04-16T06:38:16.952Z,11.77
2019-04-16T06:41:03.394Z,12.40
2019-04-16T06:43:37.653Z,11.77
2019-04-16T06:46:25.098Z,12.73
2019-04-16T06:49:14.351Z,12.17
2019-04-16T06:52:03.543Z,10.23
2019-04-16T06:54:50.863Z,12.67
2019-04-16T06:57:30.941Z,12.35
2019-04-16T07:00:18.916Z,10.77
2019-04-16T07:03:26.166Z,11.73
2019-04-16T07:06:11.949Z,12.10
2019-04-16T07:08:55.114Z,11.20
2019-04-16T07:11:24.928Z,11.27
2019-04-16T07:13:54.721Z,14.10
2019-04-16T07:16:27.904Z,11.40
2019-04-16T07:18:53.514Z,11.17
2019-04-16T07:21:22.050Z,10.93
2019-04-16T07:23:55.972Z,11.07
2019-04-16T07:26:20.615Z,11.53
2019-04-16T07:28:59.017Z,10.80
2019-04-16T07:31:52.134Z,11.07
2019-04-16T07:34:44.413Z,9.70
2019-04-16T07:37:33.066Z,9.77
2019-04-16T07:40:10.543Z,10.37
2019-04-16T07:43:15.579Z,10.30
2019-04-16T07:45:49.395Z,11.97
2019-04-16T07:48:36.152Z,11.43
2019-04-16T07:51:17.028Z,10.80
2019-04-16T07:54:18.807Z,10.80
2019-04-16T07:56:50.689Z,11.17
2019-04-16T07:59:20.759Z,11.25
2019-04-16T08:01:50.721Z,12.30
2019-04-16T08:04:28.709Z,11.90
2019-04-16T08:06:52.993Z,10.87
2019-04-16T08:09:22.921Z,12.43
2019-04-16T08:11:52.842Z,13.10
2019-04-16T08:14:22.740Z,10.95
2019-04-16T08:16:52.397Z,12.10
2019-04-16T08:19:35.761Z,12.53
2019-04-16T08:21:53.738Z,11.07
2019-04-16T08:24:28.950Z,10.43
2019-04-16T08:26:58.723Z,11.80
2019-04-16T08:29:28.406Z,11.90
2019-04-16T08:31:58.072Z,10.97
2019-04-16T08:34:27.750Z,12.30
2019-04-16T08:36:57.414Z,11.23
2019-04-16T08:39:27.094Z,11.90
2019-04-16T08:41:56.779Z,11.50
2019-04-16T08:44:26.640Z,13.53
2019-04-16T08:46:58.639Z,12.67
2019-04-16T08:49:28.106Z,14.17
2019-04-16T08:51:58.148Z,12.27
2019-04-16T08:54:28.045Z,11.77
2019-04-16T08:56:56.854Z,11.87
2019-04-16T08:59:25.693Z,13.87
2019-04-16T09:01:55.246Z,11.90
2019-04-16T09:04:25.394Z,12.43
2019-04-16T09:06:54.381Z,12.90
2019-04-16T09:09:24.678Z,12.43
2019-04-16T09:11:53.936Z,11.10
2019-04-16T09:14:25.679Z,11.90
2019-04-16T09:16:53.313Z,12.40
2019-04-16T09:19:22.367Z,12.68
2019-04-16T09:21:51.170Z,11.70
2019-04-16T09:24:18.597Z,11.93
2019-04-16T09:26:46.132Z,11.47
2019-04-16T09:29:13.839Z,12.27
2019-04-16T09:31:41.266Z,12.27
2019-04-16T09:34:08.750Z,12.50
2019-04-16T09:36:36.175Z,11.87
2019-04-16T09:39:03.623Z,12.17
2019-04-16T09:41:38.774Z,12.07
2019-04-16T09:44:08.979Z,12.50
2019-04-16T09:46:53.839Z,13.60
2019-04-16T09:49:10.213Z,13.00
2019-04-16T09:51:40.187Z,12.70
2019-04-16T09:54:13.410Z,13.13
2019-04-16T09:56:41.735Z,12.07
2019-04-16T09:59:31.097Z,12.37
2019-04-16T10:02:13.006Z,14.03
2019-04-16T10:04:42.828Z,12.53
2019-04-16T10:07:12.826Z,11.03
2019-04-16T10:09:42.586Z,14.87
2019-04-16T10:12:12.862Z,13.95
2019-04-16T10:14:42.599Z,12.10
2019-04-16T10:17:12.347Z,12.83
2019-04-16T10:19:43.296Z,13.37
2019-04-16T10:22:13.892Z,11.73
2019-04-16T10:25:01.484Z,13.17
2019-04-16T10:27:37.101Z,13.17
2019-04-16T10:30:17.399Z,13.33
2019-04-16T10:32:48.565Z,14.03
2019-04-16T10:35:18.772Z,13.40
2019-04-16T10:37:48.496Z,13.90
2019-04-16T10:40:26.543Z,14.17
2019-04-16T10:43:14.810Z,12.87
2019-04-16T10:45:52.909Z,14.07
2019-04-16T10:48:34.678Z,14.63
2019-04-16T10:51:41.511Z,14.18
2019-04-16T10:54:19.379Z,13.50
2019-04-16T10:57:15.270Z,14.20
2019-04-16T10:59:51.514Z,13.97
2019-04-16T11:02:44.195Z,13.80
2019-04-16T11:05:35.904Z,15.40
2019-04-16T11:08:07.482Z,14.53
2019-04-16T11:10:37.260Z,13.80
2019-04-16T11:13:09.302Z,15.87
2019-04-16T11:15:39.046Z,14.93
2019-04-16T11:18:08.706Z,13.40
2019-04-16T11:20:38.513Z,14.10
2019-04-16T11:23:08.772Z,14.63
2019-04-16T11:25:38.564Z,14.70
2019-04-16T11:28:08.638Z,14.93
2019-04-16T11:30:43.431Z,14.20
2019-04-16T11:33:13.106Z,15.32
2019-04-16T11:35:42.946Z,15.00
2019-04-16T11:38:12.616Z,14.63
2019-04-16T11:40:41.318Z,14.27
2019-04-16T11:43:11.556Z,14.20
2019-04-16T11:45:41.290Z,14.80
2019-04-16T11:48:11.223Z,14.43
2019-04-16T11:50:41.191Z,15.17
2019-04-16T11:53:10.925Z,16.47
2019-04-16T11:55:40.631Z,15.27
2019-04-16T11:58:29.313Z,14.50
2019-04-16T12:01:04.803Z,14.57
2019-04-16T12:03:46.837Z,16.30
2019-04-16T12:06:34.283Z,16.33
2019-04-16T12:09:29.382Z,15.72
2019-04-16T12:12:18.216Z,15.10
2019-04-16T12:15:01.262Z,17.47
2019-04-16T12:17:42.765Z,15.97
2019-04-16T12:20:21.816Z,17.10
2019-04-16T12:23:02.196Z,17.80
2019-04-16T12:25:50.836Z,16.67
2019-04-16T12:28:30.778Z,14.97
2019-04-16T12:31:05.587Z,17.07
2019-04-16T12:33:56.668Z,16.90
2019-04-16T12:36:52.122Z,16.53
2019-04-16T12:39:46.886Z,16.97
2019-04-16T12:42:20.664Z,16.57
2019-04-16T12:44:52.451Z,17.03
2019-04-16T12:47:37.676Z,17.35
2019-04-16T12:50:24.066Z,16.10
2019-04-16T12:53:12.940Z,15.87
2019-04-16T12:56:07.367Z,17.53
2019-04-16T12:58:58.791Z,17.57
2019-04-16T13:02:05.822Z,16.80
2019-04-16T13:04:50.039Z,17.40
2019-04-16T13:07:30.452Z,18.80
2019-04-16T13:10:07.433Z,18.03
2019-04-16T13:12:54.778Z,18.40
2019-04-16T13:15:46.599Z,17.10
2019-04-16T13:18:41.247Z,17.87
2019-04-16T13:21:19.444Z,17.60
2019-04-16T13:23:56.446Z,17.73
2019-04-16T13:26:45.694Z,17.43
2019-04-16T13:29:29.017Z,17.45
2019-04-16T13:31:54.727Z,18.33
2019-04-16T13:34:25.371Z,17.57
2019-04-16T13:36:59.330Z,18.20
2019-04-16T13:39:45.744Z,18.93
2019-04-16T13:42:15.514Z,18.57
2019-04-16T13:44:48.499Z,17.93
2019-04-16T13:47:18.510Z,18.15
2019-04-16T13:50:03.304Z,17.63
2019-04-16T13:52:33.486Z,18.30
2019-04-16T13:55:16.675Z,17.77
2019-04-16T13:57:54.930Z,18.83
2019-04-16T14:00:33.571Z,19.17
2019-04-16T14:03:09.378Z,19.20
2019-04-16T14:05:42.714Z,18.37
2019-04-16T14:08:11.542Z,17.47
2019-04-16T14:10:43.346Z,18.87
2019-04-16T14:13:14.063Z,18.70
2019-04-16T14:15:45.128Z,18.43
2019-04-16T14:18:14.768Z,19.10
2019-04-16T14:20:44.488Z,19.37
2019-04-16T14:23:15.448Z,17.47
2019-04-16T14:25:45.105Z,18.73
2019-04-16T14:28:17.926Z,18.42
2019-04-16T14:30:49.137Z,18.90
2019-04-16T14:33:27.106Z,18.60
2019-04-16T14:35:57.968Z,18.73
2019-04-16T14:38:36.748Z,19.17
2019-04-16T14:41:06.434Z,19.00
2019-04-16T14:43:39.159Z,19.40
2019-04-16T14:46:09.785Z,20.20
2019-04-16T14:48:45.488Z,19.83
2019-04-16T14:51:11.161Z,19.90
2019-04-16T14:53:56.842Z,20.17
2019-04-16T14:56:41.199Z,19.27
2019-04-16T14:59:34.461Z,19.80
2019-04-16T15:02:07.870Z,19.63
2019-04-16T15:04:57.775Z,20.83
2019-04-16T15:07:43.955Z,21.13
2019-04-16T15:10:35.174Z,20.97
2019-04-16T15:13:26.994Z,20.97
2019-04-16T15:16:10.813Z,21.30
2019-04-16T15:18:50.078Z,19.67
2019-04-16T15:21:43.976Z,20.53
2019-04-16T15:24:22.678Z,20.27
2019-04-16T15:27:28.227Z,20.87
2019-04-16T15:30:15.702Z,20.90
2019-04-16T15:33:07.318Z,20.30
2019-04-16T15:35:57.298Z,19.27
2019-04-16T15:38:45.863Z,22.20
2019-04-16T15:41:22.506Z,20.57
2019-04-16T15:44:09.985Z,21.40
2019-04-16T15:46:57.643Z,22.23
2019-04-16T15:49:45.026Z,21.03
2019-04-16T15:52:32.272Z,21.00
2019-04-16T15:55:14.147Z,19.90
2019-04-16T15:58:04.711Z,21.43
2019-04-16T16:00:46.144Z,20.77
2019-04-16T16:03:39.402Z,20.87
2019-04-16T16:06:12.498Z,21.27
2019-04-16T16:08:52.719Z,20.07
2019-04-16T16:11:26.861Z,21.30
2019-04-16T16:14:00.281Z,20.43
2019-04-16T16:16:41.767Z,21.33
2019-04-16T16:19:03.099Z,21.07
2019-04-16T16:21:33.755Z,21.77
2019-04-16T16:24:07.956Z,22.27
2019-04-16T16:26:35.234Z,19.87
2019-04-16T16:29:06.392Z,21.37
2019-04-16T16:31:36.299Z,20.83
2019-04-16T16:34:08.707Z,20.03
2019-04-16T16:36:40.453Z,21.57
2019-04-16T16:39:08.012Z,20.32
2019-04-16T16:41:38.299Z,21.93
2019-04-16T16:44:06.970Z,21.33
2019-04-16T16:47:11.695Z,20.77
2019-04-16T16:49:41.700Z,22.87
2019-04-16T16:52:31.149Z,21.75
2019-04-16T16:55:02.553Z,21.73
2019-04-16T16:57:44.623Z,21.33
2019-04-16T17:00:24.023Z,22.47
2019-04-16T17:03:13.306Z,22.58
2019-04-16T17:05:43.167Z,21.40
2019-04-16T17:08:13.414Z,23.00
2019-04-16T17:10:44.243Z,22.70
2019-04-16T17:13:17.020Z,22.65
2019-04-16T17:15:45.838Z,22.77
2019-04-16T17:18:15.819Z,22.70
2019-04-16T17:20:50.037Z,22.90
2019-04-16T17:23:20.025Z,21.90
2019-04-16T17:25:51.850Z,22.63
2019-04-16T17:28:21.938Z,23.07
2019-04-16T17:30:52.059Z,24.80
2019-04-16T17:33:22.674Z,23.03
2019-04-16T17:35:52.961Z,21.70
2019-04-16T17:38:23.798Z,22.13
2019-04-16T17:40:59.857Z,22.50
2019-04-16T17:43:41.261Z,22.98
2019-04-16T17:46:29.008Z,25.10
2019-04-16T17:49:19.616Z,23.43
2019-04-16T17:52:19.489Z,20.80
2019-04-16T17:55:06.827Z,23.37
2019-04-16T17:57:48.292Z,22.43
2019-04-16T18:00:34.683Z,24.30
2019-04-16T18:03:16.274Z,21.67
2019-04-16T18:05:59.822Z,22.20
2019-04-16T18:09:01.927Z,23.30
2019-04-16T18:11:44.720Z,22.30
2019-04-16T18:14:48.706Z,21.60
2019-04-16T18:17:47.001Z,22.48
2019-04-16T18:20:25.652Z,23.07
2019-04-16T18:23:20.142Z,23.27
2019-04-16T18:26:07.818Z,21.83
2019-04-16T18:28:44.038Z,23.97
2019-04-16T18:31:48.583Z,22.63
2019-04-16T18:34:33.183Z,22.47
2019-04-16T18:37:29.171Z,23.43
2019-04-16T18:40:08.941Z,23.83
2019-04-16T18:42:52.014Z,20.97
2019-04-16T18:45:39.625Z,23.10
2019-04-16T18:48:15.364Z,22.30
2019-04-16T18:50:45.703Z,20.93
2019-04-16T18:53:16.479Z,22.13
2019-04-16T18:55:46.723Z,23.20
2019-04-16T18:58:16.690Z,23.10
2019-04-16T19:00:49.032Z,23.43
2019-04-16T19:03:19.041Z,22.90
2019-04-16T19:05:48.957Z,23.87
2019-04-16T19:08:18.946Z,22.07
2019-04-16T19:10:49.355Z,24.83
2019-04-16T19:13:20.449Z,21.03
2019-04-16T19:15:50.448Z,24.33
2019-04-16T19:18:20.705Z,21.20
2019-04-16T19:20:52.568Z,23.53
2019-04-16T19:23:22.866Z,21.47
2019-04-16T19:25:55.403Z,24.20
2019-04-16T19:28:24.906Z,23.83
2019-04-16T19:30:55.159Z,22.60
2019-04-16T19:33:25.016Z,21.55
2019-04-16T19:35:57.678Z,23.77
2019-04-16T19:38:27.737Z,23.87
2019-04-16T19:41:06.297Z,21.97
2019-04-16T19:43:39.118Z,24.83
2019-04-16T19:46:09.006Z,21.87
2019-04-16T19:48:38.674Z,23.23
2019-04-16T19:51:09.064Z,23.73
2019-04-16T19:53:37.736Z,24.83
2019-04-16T19:56:06.124Z,22.93
2019-04-16T19:58:40.635Z,24.80
2019-04-16T20:01:12.025Z,23.23
2019-04-16T20:03:43.525Z,22.83
2019-04-16T20:06:13.628Z,24.00
2019-04-16T20:08:52.251Z,24.03
2019-04-16T20:11:25.071Z,24.82
2019-04-16T20:13:54.967Z,24.27
2019-04-16T20:16:30.750Z,23.27
2019-04-16T20:19:15.061Z,22.50
2019-04-16T20:21:56.408Z,23.70
2019-04-16T20:24:26.103Z,21.93
2019-04-16T20:26:55.978Z,26.93
2019-04-16T20:29:25.647Z,26.90
2019-04-16T20:31:55.622Z,27.47
2019-04-16T20:34:25.650Z,25.37
2019-04-16T20:36:56.784Z,23.77
2019-04-16T20:39:26.983Z,26.03
2019-04-16T20:41:59.255Z,28.10
2019-04-16T20:44:28.377Z,24.10
2019-04-16T20:47:02.332Z,25.40
2019-04-16T20:49:31.243Z,25.10
2019-04-16T20:52:02.530Z,25.70
2019-04-16T20:54:33.527Z,22.23
2019-04-16T20:57:03.272Z,25.37
2019-04-16T20:59:36.047Z,25.47
2019-04-16T21:02:05.274Z,24.07
2019-04-16T21:04:35.013Z,26.20
2019-04-16T21:07:05.019Z,27.03
2019-04-16T21:09:34.917Z,26.45
2019-04-16T21:12:12.882Z,23.85
2019-04-16T21:14:41.294Z,22.97
2019-04-16T21:17:19.469Z,24.57
2019-04-16T21:19:50.181Z,21.93
2019-04-16T21:22:20.096Z,23.00
2019-04-16T21:24:50.088Z,23.30
2019-04-16T21:27:21.146Z,23.53
2019-04-16T21:29:51.120Z,24.17
2019-04-16T21:32:49.807Z,22.33
2019-04-16T21:35:48.036Z,21.70
2019-04-16T21:38:23.937Z,23.45
2019-04-16T21:40:56.379Z,23.27
2019-04-16T21:43:26.025Z,21.73
2019-04-16T21:45:55.701Z,22.60
2019-04-16T21:48:27.036Z,22.43
2019-04-16T21:50:57.129Z,21.60
2019-04-16T21:53:27.943Z,25.00
2019-04-16T21:55:58.579Z,19.97
2019-04-16T21:58:28.264Z,24.37
2019-04-16T22:01:05.132Z,24.10
2019-04-16T22:03:41.759Z,23.37
2019-04-16T22:06:07.659Z,22.70
2019-04-16T22:08:37.410Z,22.33
2019-04-16T22:11:08.531Z,25.47
2019-04-16T22:13:38.481Z,25.60
2019-04-16T22:16:08.488Z,22.53
2019-04-16T22:18:41.603Z,24.67
2019-04-16T22:21:11.171Z,22.47
2019-04-16T22:23:40.976Z,21.03
2019-04-16T22:26:11.119Z,23.18
2019-04-16T22:28:44.198Z,23.83
2019-04-16T22:31:12.727Z,23.87
2019-04-16T22:33:42.388Z,20.83
2019-04-16T22:36:12.065Z,23.75
2019-04-16T22:38:45.376Z,22.33
2019-04-16T22:41:23.539Z,21.93
2019-04-16T22:44:28.340Z,23.97
2019-04-16T22:47:03.182Z,22.47
2019-04-16T22:49:32.977Z,20.30
2019-04-16T22:52:02.858Z,21.83
2019-04-16T22:54:32.765Z,22.53
2019-04-16T22:57:06.913Z,19.90
2019-04-16T22:59:39.356Z,23.17
2019-04-16T23:02:13.794Z,23.57
2019-04-16T23:04:43.834Z,22.35
2019-04-16T23:07:13.507Z,20.83
2019-04-16T23:09:45.735Z,21.20
2019-04-16T23:12:14.777Z,22.10
2019-04-16T23:14:44.684Z,22.10
2019-04-16T23:17:15.930Z,20.83
2019-04-16T23:19:45.835Z,19.70
2019-04-16T23:22:15.536Z,20.88
2019-04-16T23:24:45.413Z,20.43
2019-04-16T23:27:15.171Z,23.00
2019-04-16T23:29:47.544Z,19.17
2019-04-16T23:32:16.556Z,21.37
2019-04-16T23:34:46.450Z,19.63
2019-04-16T23:37:16.138Z,23.43
2019-04-16T23:39:45.842Z,21.67
2019-04-16T23:42:18.767Z,23.70
2019-04-16T23:45:09.284Z,22.90
2019-04-16T23:47:48.902Z,22.10
2019-04-16T23:50:26.686Z,24.00
2019-04-16T23:53:12.496Z,22.77
2019-04-16T23:55:58.378Z,23.83
2019-04-16T23:58:34.042Z,24.17
